sensor_id;sensor_type;location;lat;lon;timestamp;temperature;humidity
74368;DHT22;64991;41.090;-8.118;2023-03-23T00:00:50;18.60;78.90
74368;DHT22;64991;41.090;-8.118;2023-03-23T00:05:54;18.60;78.60
74368;DHT22;64991;41.090;-8.118;2023-03-23T00:11:00;18.50;78.80
74368;DHT22;64991;41.090;-8.118;2023-03-23T00:16:04;18.30;78.60
74368;DHT22;64991;41.090;-8.118;2023-03-23T00:21:06;18.40;78.70
74368;DHT22;64991;41.090;-8.118;2023-03-23T00:26:09;18.40;78.40
74368;DHT22;64991;41.090;-8.118;2023-03-23T00:31:13;18.40;78.50
74368;DHT22;64991;41.090;-8.118;2023-03-23T00:36:15;18.50;78.60
74368;DHT22;64991;41.090;-8.118;2023-03-23T00:41:18;18.50;78.60
74368;DHT22;64991;41.090;-8.118;2023-03-23T00:46:22;18.40;78.70
74368;DHT22;64991;41.090;-8.118;2023-03-23T00:51:25;18.50;78.60
74368;DHT22;64991;41.090;-8.118;2023-03-23T00:56:27;18.40;78.80
74368;DHT22;64991;41.090;-8.118;2023-03-23T01:01:32;18.50;78.10
74368;DHT22;64991;41.090;-8.118;2023-03-23T01:06:35;18.40;78.20
74368;DHT22;64991;41.090;-8.118;2023-03-23T01:11:39;18.40;78.40
74368;DHT22;64991;41.090;-8.118;2023-03-23T01:16:43;18.40;78.20
74368;DHT22;64991;41.090;-8.118;2023-03-23T01:21:45;18.50;78.60
74368;DHT22;64991;41.090;-8.118;2023-03-23T01:26:48;18.40;78.60
74368;DHT22;64991;41.090;-8.118;2023-03-23T01:31:52;18.50;78.60
74368;DHT22;64991;41.090;-8.118;2023-03-23T01:36:54;18.20;78.40
74368;DHT22;64991;41.090;-8.118;2023-03-23T01:41:56;18.30;78.40
74368;DHT22;64991;41.090;-8.118;2023-03-23T01:47:00;18.40;78.30
74368;DHT22;64991;41.090;-8.118;2023-03-23T01:52:04;18.30;78.20
74368;DHT22;64991;41.090;-8.118;2023-03-23T01:57:09;18.40;78.70
74368;DHT22;64991;41.090;-8.118;2023-03-23T02:02:15;18.40;78.20
74368;DHT22;64991;41.090;-8.118;2023-03-23T02:07:19;18.30;78.20
74368;DHT22;64991;41.090;-8.118;2023-03-23T02:12:22;18.30;78.10
74368;DHT22;64991;41.090;-8.118;2023-03-23T02:17:27;18.30;78.50
74368;DHT22;64991;41.090;-8.118;2023-03-23T02:28:14;18.30;78.10
74368;DHT22;64991;41.090;-8.118;2023-03-23T02:33:31;18.30;78.20
74368;DHT22;64991;41.090;-8.118;2023-03-23T02:38:39;18.30;78.30
74368;DHT22;64991;41.090;-8.118;2023-03-23T02:43:51;18.30;78.00
74368;DHT22;64991;41.090;-8.118;2023-03-23T02:48:55;18.20;78.00
74368;DHT22;64991;41.090;-8.118;2023-03-23T02:53:59;18.20;78.40
74368;DHT22;64991;41.090;-8.118;2023-03-23T02:59:01;18.20;77.90
74368;DHT22;64991;41.090;-8.118;2023-03-23T03:04:06;18.20;77.80
74368;DHT22;64991;41.090;-8.118;2023-03-23T03:09:11;18.30;77.90
74368;DHT22;64991;41.090;-8.118;2023-03-23T03:14:18;18.20;78.00
74368;DHT22;64991;41.090;-8.118;2023-03-23T03:19:25;18.30;77.90
74368;DHT22;64991;41.090;-8.118;2023-03-23T03:24:29;18.20;78.20
74368;DHT22;64991;41.090;-8.118;2023-03-23T03:29:33;18.20;78.10
74368;DHT22;64991;41.090;-8.118;2023-03-23T03:34:40;18.20;78.00
74368;DHT22;64991;41.090;-8.118;2023-03-23T03:39:43;18.30;77.80
74368;DHT22;64991;41.090;-8.118;2023-03-23T03:44:45;18.20;77.60
74368;DHT22;64991;41.090;-8.118;2023-03-23T03:49:49;18.20;77.70
74368;DHT22;64991;41.090;-8.118;2023-03-23T03:54:51;18.20;78.10
74368;DHT22;64991;41.090;-8.118;2023-03-23T03:59:54;18.20;77.70
74368;DHT22;64991;41.090;-8.118;2023-03-23T04:04:58;18.20;77.80
74368;DHT22;64991;41.090;-8.118;2023-03-23T04:10:04;18.20;77.50
74368;DHT22;64991;41.090;-8.118;2023-03-23T04:15:07;18.20;77.50
74368;DHT22;64991;41.090;-8.118;2023-03-23T04:20:12;18.10;78.10
74368;DHT22;64991;41.090;-8.118;2023-03-23T04:25:17;18.20;77.70
74368;DHT22;64991;41.090;-8.118;2023-03-23T04:30:22;18.20;77.50
74368;DHT22;64991;41.090;-8.118;2023-03-23T04:35:27;18.20;77.70
74368;DHT22;64991;41.090;-8.118;2023-03-23T04:40:29;18.00;78.10
74368;DHT22;64991;41.090;-8.118;2023-03-23T04:45:32;18.30;77.50
74368;DHT22;64991;41.090;-8.118;2023-03-23T04:50:39;18.20;77.70
74368;DHT22;64991;41.090;-8.118;2023-03-23T04:55:41;18.20;77.80
74368;DHT22;64991;41.090;-8.118;2023-03-23T05:00:44;18.20;77.50
74368;DHT22;64991;41.090;-8.118;2023-03-23T05:05:51;18.20;77.30
74368;DHT22;64991;41.090;-8.118;2023-03-23T05:10:54;18.20;77.50
74368;DHT22;64991;41.090;-8.118;2023-03-23T05:15:57;18.20;77.60
74368;DHT22;64991;41.090;-8.118;2023-03-23T05:21:01;18.10;78.00
74368;DHT22;64991;41.090;-8.118;2023-03-23T05:26:04;18.20;77.50
74368;DHT22;64991;41.090;-8.118;2023-03-23T05:31:07;18.20;77.10
74368;DHT22;64991;41.090;-8.118;2023-03-23T05:36:11;18.20;77.10
74368;DHT22;64991;41.090;-8.118;2023-03-23T05:41:14;18.20;77.40
74368;DHT22;64991;41.090;-8.118;2023-03-23T05:46:16;18.20;77.20
74368;DHT22;64991;41.090;-8.118;2023-03-23T05:51:20;18.20;77.20
74368;DHT22;64991;41.090;-8.118;2023-03-23T05:56:23;18.20;77.40
74368;DHT22;64991;41.090;-8.118;2023-03-23T06:01:25;18.20;77.30
74368;DHT22;64991;41.090;-8.118;2023-03-23T06:06:30;18.10;77.50
74368;DHT22;64991;41.090;-8.118;2023-03-23T06:11:32;18.10;77.70
74368;DHT22;64991;41.090;-8.118;2023-03-23T06:16:35;18.00;77.90
74368;DHT22;64991;41.090;-8.118;2023-03-23T06:21:39;18.10;77.80
74368;DHT22;64991;41.090;-8.118;2023-03-23T06:26:41;18.10;77.70
74368;DHT22;64991;41.090;-8.118;2023-03-23T06:31:45;18.00;77.90
74368;DHT22;64991;41.090;-8.118;2023-03-23T06:36:50;18.00;77.90
74368;DHT22;64991;41.090;-8.118;2023-03-23T06:41:53;18.10;78.20
74368;DHT22;64991;41.090;-8.118;2023-03-23T06:46:55;18.10;78.20
74368;DHT22;64991;41.090;-8.118;2023-03-23T06:51:59;18.10;77.80
74368;DHT22;64991;41.090;-8.118;2023-03-23T06:57:02;18.10;78.00
74368;DHT22;64991;41.090;-8.118;2023-03-23T07:02:04;18.10;78.10
74368;DHT22;64991;41.090;-8.118;2023-03-23T07:07:09;18.10;77.80
74368;DHT22;64991;41.090;-8.118;2023-03-23T07:12:14;18.00;78.10
74368;DHT22;64991;41.090;-8.118;2023-03-23T07:17:17;18.10;77.70
74368;DHT22;64991;41.090;-8.118;2023-03-23T07:22:20;18.00;77.80
74368;DHT22;64991;41.090;-8.118;2023-03-23T07:27:23;18.10;77.80
74368;DHT22;64991;41.090;-8.118;2023-03-23T07:32:26;18.00;77.70
74368;DHT22;64991;41.090;-8.118;2023-03-23T07:37:29;18.00;78.10
74368;DHT22;64991;41.090;-8.118;2023-03-23T07:42:32;18.00;78.00
74368;DHT22;64991;41.090;-8.118;2023-03-23T07:47:35;18.00;78.00
74368;DHT22;64991;41.090;-8.118;2023-03-23T07:52:39;18.00;78.00
74368;DHT22;64991;41.090;-8.118;2023-03-23T07:57:41;18.00;78.20
74368;DHT22;64991;41.090;-8.118;2023-03-23T08:02:44;18.00;77.60
74368;DHT22;64991;41.090;-8.118;2023-03-23T08:07:48;18.00;77.90
74368;DHT22;64991;41.090;-8.118;2023-03-23T08:12:53;17.90;77.70
74368;DHT22;64991;41.090;-8.118;2023-03-23T08:17:57;17.90;77.80
74368;DHT22;64991;41.090;-8.118;2023-03-23T08:23:03;18.00;77.70
74368;DHT22;64991;41.090;-8.118;2023-03-23T08:28:06;18.00;77.60
74368;DHT22;64991;41.090;-8.118;2023-03-23T08:33:09;18.00;77.70
74368;DHT22;64991;41.090;-8.118;2023-03-23T08:38:13;18.00;77.80
74368;DHT22;64991;41.090;-8.118;2023-03-23T08:43:16;18.00;77.70
74368;DHT22;64991;41.090;-8.118;2023-03-23T08:48:18;17.90;78.10
74368;DHT22;64991;41.090;-8.118;2023-03-23T08:53:22;17.90;77.90
74368;DHT22;64991;41.090;-8.118;2023-03-23T08:58:25;17.90;77.70
74368;DHT22;64991;41.090;-8.118;2023-03-23T09:03:27;17.90;78.00
74368;DHT22;64991;41.090;-8.118;2023-03-23T09:08:31;17.90;77.70
74368;DHT22;64991;41.090;-8.118;2023-03-23T09:13:36;17.90;78.40
74368;DHT22;64991;41.090;-8.118;2023-03-23T09:18:39;17.90;78.20
74368;DHT22;64991;41.090;-8.118;2023-03-23T09:23:43;17.90;77.90
74368;DHT22;64991;41.090;-8.118;2023-03-23T09:28:46;17.90;78.20
74368;DHT22;64991;41.090;-8.118;2023-03-23T09:33:48;17.80;78.00
74368;DHT22;64991;41.090;-8.118;2023-03-23T09:38:54;17.80;78.20
74368;DHT22;64991;41.090;-8.118;2023-03-23T09:43:59;17.70;78.10
74368;DHT22;64991;41.090;-8.118;2023-03-23T09:49:07;17.70;78.20
74368;DHT22;64991;41.090;-8.118;2023-03-23T09:54:14;17.80;78.10
74368;DHT22;64991;41.090;-8.118;2023-03-23T09:59:23;17.80;78.10
74368;DHT22;64991;41.090;-8.118;2023-03-23T10:04:32;17.80;78.40
74368;DHT22;64991;41.090;-8.118;2023-03-23T10:09:39;17.90;78.10
74368;DHT22;64991;41.090;-8.118;2023-03-23T10:20:13;17.90;78.30
74368;DHT22;64991;41.090;-8.118;2023-03-23T10:25:25;18.00;78.30
74368;DHT22;64991;41.090;-8.118;2023-03-23T10:30:31;17.90;78.50
74368;DHT22;64991;41.090;-8.118;2023-03-23T10:35:36;17.90;78.60
74368;DHT22;64991;41.090;-8.118;2023-03-23T10:40:45;17.90;78.40
74368;DHT22;64991;41.090;-8.118;2023-03-23T10:45:53;17.90;78.60
74368;DHT22;64991;41.090;-8.118;2023-03-23T10:51:00;18.00;78.80
74368;DHT22;64991;41.090;-8.118;2023-03-23T10:56:18;17.90;78.60
74368;DHT22;64991;41.090;-8.118;2023-03-23T11:01:29;17.90;78.70
74368;DHT22;64991;41.090;-8.118;2023-03-23T11:06:32;18.00;78.80
74368;DHT22;64991;41.090;-8.118;2023-03-23T11:11:43;17.90;78.80
74368;DHT22;64991;41.090;-8.118;2023-03-23T11:16:50;17.90;78.90
74368;DHT22;64991;41.090;-8.118;2023-03-23T11:22:05;17.90;78.90
74368;DHT22;64991;41.090;-8.118;2023-03-23T11:27:09;17.90;78.90
74368;DHT22;64991;41.090;-8.118;2023-03-23T11:32:14;17.90;79.20
74368;DHT22;64991;41.090;-8.118;2023-03-23T11:37:18;18.00;79.10
74368;DHT22;64991;41.090;-8.118;2023-03-23T11:42:25;17.90;78.70
74368;DHT22;64991;41.090;-8.118;2023-03-23T11:47:30;17.90;79.20
74368;DHT22;64991;41.090;-8.118;2023-03-23T11:52:39;18.00;79.20
74368;DHT22;64991;41.090;-8.118;2023-03-23T11:57:44;18.10;79.00
74368;DHT22;64991;41.090;-8.118;2023-03-23T12:02:48;18.00;79.20
74368;DHT22;64991;41.090;-8.118;2023-03-23T12:07:58;18.00;79.00
74368;DHT22;64991;41.090;-8.118;2023-03-23T12:13:17;18.00;79.10
74368;DHT22;64991;41.090;-8.118;2023-03-23T12:18:33;18.10;79.00
74368;DHT22;64991;41.090;-8.118;2023-03-23T12:23:41;18.00;79.40
74368;DHT22;64991;41.090;-8.118;2023-03-23T12:28:53;17.90;79.20
74368;DHT22;64991;41.090;-8.118;2023-03-23T12:34:22;18.10;79.10
74368;DHT22;64991;41.090;-8.118;2023-03-23T12:45:15;18.00;79.20
74368;DHT22;64991;41.090;-8.118;2023-03-23T12:50:24;18.00;79.40
74368;DHT22;64991;41.090;-8.118;2023-03-23T12:55:32;18.00;79.10
74368;DHT22;64991;41.090;-8.118;2023-03-23T13:00:48;18.00;79.20
74368;DHT22;64991;41.090;-8.118;2023-03-23T13:05:54;18.00;79.10
74368;DHT22;64991;41.090;-8.118;2023-03-23T13:11:01;18.10;79.30
74368;DHT22;64991;41.090;-8.118;2023-03-23T13:16:07;18.00;79.00
74368;DHT22;64991;41.090;-8.118;2023-03-23T13:21:15;18.00;79.30
74368;DHT22;64991;41.090;-8.118;2023-03-23T13:26:21;18.00;79.30
74368;DHT22;64991;41.090;-8.118;2023-03-23T13:31:26;18.10;79.10
74368;DHT22;64991;41.090;-8.118;2023-03-23T13:36:32;18.10;79.10
74368;DHT22;64991;41.090;-8.118;2023-03-23T13:41:45;18.10;79.20
74368;DHT22;64991;41.090;-8.118;2023-03-23T13:46:57;18.10;79.30
74368;DHT22;64991;41.090;-8.118;2023-03-23T13:52:14;18.10;79.20
74368;DHT22;64991;41.090;-8.118;2023-03-23T13:57:20;18.10;79.20
74368;DHT22;64991;41.090;-8.118;2023-03-23T14:02:37;18.00;79.30
74368;DHT22;64991;41.090;-8.118;2023-03-23T14:07:55;18.00;79.20
74368;DHT22;64991;41.090;-8.118;2023-03-23T14:13:00;18.10;79.10
74368;DHT22;64991;41.090;-8.118;2023-03-23T14:18:04;18.10;79.20
74368;DHT22;64991;41.090;-8.118;2023-03-23T14:23:12;18.00;79.20
74368;DHT22;64991;41.090;-8.118;2023-03-23T14:28:18;18.00;79.10
74368;DHT22;64991;41.090;-8.118;2023-03-23T14:33:23;18.10;79.00
74368;DHT22;64991;41.090;-8.118;2023-03-23T14:38:26;18.10;79.10
74368;DHT22;64991;41.090;-8.118;2023-03-23T14:43:32;18.10;79.30
74368;DHT22;64991;41.090;-8.118;2023-03-23T14:48:37;18.00;79.20
74368;DHT22;64991;41.090;-8.118;2023-03-23T14:53:40;18.10;79.20
74368;DHT22;64991;41.090;-8.118;2023-03-23T14:58:43;18.10;79.20
74368;DHT22;64991;41.090;-8.118;2023-03-23T15:03:49;18.10;79.20
74368;DHT22;64991;41.090;-8.118;2023-03-23T15:08:55;18.00;79.30
74368;DHT22;64991;41.090;-8.118;2023-03-23T15:14:00;18.00;79.40
74368;DHT22;64991;41.090;-8.118;2023-03-23T15:19:11;18.10;79.30
74368;DHT22;64991;41.090;-8.118;2023-03-23T15:24:24;18.00;79.50
74368;DHT22;64991;41.090;-8.118;2023-03-23T15:29:28;18.10;79.40
74368;DHT22;64991;41.090;-8.118;2023-03-23T15:34:32;18.20;79.00
74368;DHT22;64991;41.090;-8.118;2023-03-23T15:39:40;18.10;79.30
74368;DHT22;64991;41.090;-8.118;2023-03-23T15:44:43;18.00;79.50
74368;DHT22;64991;41.090;-8.118;2023-03-23T15:49:47;18.00;79.40
74368;DHT22;64991;41.090;-8.118;2023-03-23T15:55:00;18.10;79.40
74368;DHT22;64991;41.090;-8.118;2023-03-23T16:00:03;18.00;79.40
74368;DHT22;64991;41.090;-8.118;2023-03-23T16:05:10;18.10;79.70
74368;DHT22;64991;41.090;-8.118;2023-03-23T16:10:15;18.20;79.10
74368;DHT22;64991;41.090;-8.118;2023-03-23T16:15:20;18.10;79.60
74368;DHT22;64991;41.090;-8.118;2023-03-23T16:20:27;18.10;79.50
74368;DHT22;64991;41.090;-8.118;2023-03-23T16:25:32;18.10;79.50
74368;DHT22;64991;41.090;-8.118;2023-03-23T16:30:36;18.10;79.70
74368;DHT22;64991;41.090;-8.118;2023-03-23T16:35:41;18.10;79.60
74368;DHT22;64991;41.090;-8.118;2023-03-23T16:40:45;18.10;79.70
74368;DHT22;64991;41.090;-8.118;2023-03-23T16:45:49;18.10;79.50
74368;DHT22;64991;41.090;-8.118;2023-03-23T16:50:58;18.00;79.50
74368;DHT22;64991;41.090;-8.118;2023-03-23T16:56:02;18.10;79.60
74368;DHT22;64991;41.090;-8.118;2023-03-23T17:01:06;18.10;79.70
74368;DHT22;64991;41.090;-8.118;2023-03-23T17:06:11;18.10;79.50
74368;DHT22;64991;41.090;-8.118;2023-03-23T17:11:15;18.10;79.60
74368;DHT22;64991;41.090;-8.118;2023-03-23T17:16:18;18.10;79.50
74368;DHT22;64991;41.090;-8.118;2023-03-23T17:21:23;18.20;78.90
74368;DHT22;64991;41.090;-8.118;2023-03-23T17:26:27;18.10;79.50
74368;DHT22;64991;41.090;-8.118;2023-03-23T17:31:31;18.00;79.70
74368;DHT22;64991;41.090;-8.118;2023-03-23T17:36:36;18.10;79.70
74368;DHT22;64991;41.090;-8.118;2023-03-23T17:41:39;18.10;79.60
74368;DHT22;64991;41.090;-8.118;2023-03-23T17:46:43;18.10;79.60
74368;DHT22;64991;41.090;-8.118;2023-03-23T17:51:48;18.10;79.70
74368;DHT22;64991;41.090;-8.118;2023-03-23T17:56:51;18.10;79.50
74368;DHT22;64991;41.090;-8.118;2023-03-23T18:01:55;18.10;79.40
74368;DHT22;64991;41.090;-8.118;2023-03-23T18:07:00;18.00;79.60
74368;DHT22;64991;41.090;-8.118;2023-03-23T18:12:04;18.00;79.90
74368;DHT22;64991;41.090;-8.118;2023-03-23T18:17:08;18.10;79.80
74368;DHT22;64991;41.090;-8.118;2023-03-23T18:22:13;18.00;79.60
74368;DHT22;64991;41.090;-8.118;2023-03-23T18:27:16;18.00;79.70
74368;DHT22;64991;41.090;-8.118;2023-03-23T18:32:20;18.10;79.80
74368;DHT22;64991;41.090;-8.118;2023-03-23T18:37:25;18.10;79.90
74368;DHT22;64991;41.090;-8.118;2023-03-23T18:42:29;18.00;79.70
74368;DHT22;64991;41.090;-8.118;2023-03-23T18:47:32;18.00;79.60
74368;DHT22;64991;41.090;-8.118;2023-03-23T18:52:39;18.00;79.70
74368;DHT22;64991;41.090;-8.118;2023-03-23T18:57:43;18.00;79.60
74368;DHT22;64991;41.090;-8.118;2023-03-23T19:02:46;18.00;79.90
74368;DHT22;64991;41.090;-8.118;2023-03-23T19:07:54;18.00;79.90
74368;DHT22;64991;41.090;-8.118;2023-03-23T19:12:58;18.10;79.60
74368;DHT22;64991;41.090;-8.118;2023-03-23T19:18:02;18.10;79.60
74368;DHT22;64991;41.090;-8.118;2023-03-23T19:23:07;18.10;79.60
74368;DHT22;64991;41.090;-8.118;2023-03-23T19:28:10;18.10;79.80
74368;DHT22;64991;41.090;-8.118;2023-03-23T19:33:34;18.10;79.80
74368;DHT22;64991;41.090;-8.118;2023-03-23T19:38:39;18.10;79.80
74368;DHT22;64991;41.090;-8.118;2023-03-23T19:43:42;18.00;79.90
74368;DHT22;64991;41.090;-8.118;2023-03-23T19:48:46;18.00;79.90
74368;DHT22;64991;41.090;-8.118;2023-03-23T19:53:51;18.00;80.00
74368;DHT22;64991;41.090;-8.118;2023-03-23T19:58:54;18.00;80.10
74368;DHT22;64991;41.090;-8.118;2023-03-23T20:03:58;18.00;80.00
74368;DHT22;64991;41.090;-8.118;2023-03-23T20:09:07;18.00;80.10
74368;DHT22;64991;41.090;-8.118;2023-03-23T20:14:10;18.00;80.10
74368;DHT22;64991;41.090;-8.118;2023-03-23T20:19:13;18.00;80.00
74368;DHT22;64991;41.090;-8.118;2023-03-23T20:24:18;18.10;80.00
74368;DHT22;64991;41.090;-8.118;2023-03-23T20:29:21;17.90;80.20
74368;DHT22;64991;41.090;-8.118;2023-03-23T20:34:25;18.10;80.10
74368;DHT22;64991;41.090;-8.118;2023-03-23T20:39:33;18.00;80.20
74368;DHT22;64991;41.090;-8.118;2023-03-23T20:44:37;18.10;80.20
74368;DHT22;64991;41.090;-8.118;2023-03-23T20:49:42;18.00;80.20
74368;DHT22;64991;41.090;-8.118;2023-03-23T20:54:55;18.00;80.30
74368;DHT22;64991;41.090;-8.118;2023-03-23T20:59:59;18.00;80.20
74368;DHT22;64991;41.090;-8.118;2023-03-23T21:05:04;17.90;80.30
74368;DHT22;64991;41.090;-8.118;2023-03-23T21:10:09;18.00;80.40
74368;DHT22;64991;41.090;-8.118;2023-03-23T21:15:13;18.10;80.30
74368;DHT22;64991;41.090;-8.118;2023-03-23T21:20:16;17.90;80.40
74368;DHT22;64991;41.090;-8.118;2023-03-23T21:25:21;18.00;80.50
74368;DHT22;64991;41.090;-8.118;2023-03-23T21:30:35;18.00;80.30
74368;DHT22;64991;41.090;-8.118;2023-03-23T21:35:42;18.00;80.20
74368;DHT22;64991;41.090;-8.118;2023-03-23T21:40:47;18.10;80.20
74368;DHT22;64991;41.090;-8.118;2023-03-23T21:45:50;18.00;80.30
74368;DHT22;64991;41.090;-8.118;2023-03-23T21:51:03;18.10;80.30
74368;DHT22;64991;41.090;-8.118;2023-03-23T21:56:09;18.00;80.40
74368;DHT22;64991;41.090;-8.118;2023-03-23T22:01:13;18.00;80.40
74368;DHT22;64991;41.090;-8.118;2023-03-23T22:06:17;18.00;80.50
74368;DHT22;64991;41.090;-8.118;2023-03-23T22:11:26;18.00;80.60
74368;DHT22;64991;41.090;-8.118;2023-03-23T22:16:31;18.00;80.50
74368;DHT22;64991;41.090;-8.118;2023-03-23T22:21:36;18.00;80.60
74368;DHT22;64991;41.090;-8.118;2023-03-23T22:26:41;18.10;80.50
74368;DHT22;64991;41.090;-8.118;2023-03-23T22:31:44;18.00;80.70
74368;DHT22;64991;41.090;-8.118;2023-03-23T22:36:48;18.00;80.50
74368;DHT22;64991;41.090;-8.118;2023-03-23T22:41:53;18.00;80.70
74368;DHT22;64991;41.090;-8.118;2023-03-23T22:46:57;18.00;80.60
74368;DHT22;64991;41.090;-8.118;2023-03-23T22:52:00;18.10;80.90
74368;DHT22;64991;41.090;-8.118;2023-03-23T22:57:05;18.10;80.80
74368;DHT22;64991;41.090;-8.118;2023-03-23T23:02:09;18.00;80.80
74368;DHT22;64991;41.090;-8.118;2023-03-23T23:07:12;18.10;80.50
74368;DHT22;64991;41.090;-8.118;2023-03-23T23:12:17;18.00;80.60
74368;DHT22;64991;41.090;-8.118;2023-03-23T23:17:22;18.10;80.70
74368;DHT22;64991;41.090;-8.118;2023-03-23T23:22:26;18.10;80.90
74368;DHT22;64991;41.090;-8.118;2023-03-23T23:27:30;18.10;80.60
74368;DHT22;64991;41.090;-8.118;2023-03-23T23:32:34;18.20;80.20
74368;DHT22;64991;41.090;-8.118;2023-03-23T23:37:38;18.10;80.70
74368;DHT22;64991;41.090;-8.118;2023-03-23T23:42:43;18.00;81.00
74368;DHT22;64991;41.090;-8.118;2023-03-23T23:47:48;18.00;81.10
74368;DHT22;64991;41.090;-8.118;2023-03-23T23:52:52;18.00;81.20
74368;DHT22;64991;41.090;-8.118;2023-03-23T23:57:57;18.10;81.30
